sensor_id;sensor_type;location;lat;lon;timestamp;pressure;altitude;pressure_sealevel;temperature;humidity
6433;BME280;3249;42.690;23.260;2023-06-19T00:00:14;94387.88;;;17.62;100.00
6433;BME280;3249;42.690;23.260;2023-06-19T00:02:48;94386.88;;;17.78;100.00
6433;BME280;3249;42.690;23.260;2023-06-19T00:05:17;94379.78;;;17.59;100.00
6433;BME280;3249;42.690;23.260;2023-06-19T00:07:49;94389.19;;;17.75;100.00
6433;BME280;3249;42.690;23.260;2023-06-19T00:10:18;94385.28;;;17.67;100.00
6433;BME280;3249;42.690;23.260;2023-06-19T00:12:47;94386.84;;;17.68;100.00
6433;BME280;3249;42.690;23.260;2023-06-19T00:15:16;94381.38;;;17.65;100.00
6433;BME280;3249;42.690;23.260;2023-06-19T00:17:48;94381.09;;;17.61;100.00
6433;BME280;3249;42.690;23.260;2023-06-19T00:20:17;94386.53;;;17.60;100.00
6433;BME280;3249;42.690;23.260;2023-06-19T00:22:46;94384.72;;;17.60;100.00
6433;BME280;3249;42.690;23.260;2023-06-19T00:25:17;94377.47;;;17.62;100.00
6433;BME280;3249;42.690;23.260;2023-06-19T00:27:47;94374.06;;;17.67;100.00
6433;BME280;3249;42.690;23.260;2023-06-19T00:30:16;94376.66;;;17.67;100.00
6433;BME280;3249;42.690;23.260;2023-06-19T00:32:48;94374.34;;;17.70;100.00
6433;BME280;3249;42.690;23.260;2023-06-19T00:35:19;94370.16;;;17.64;100.00
6433;BME280;3249;42.690;23.260;2023-06-19T00:37:49;94365.63;;;17.40;100.00
6433;BME280;3249;42.690;23.260;2023-06-19T00:40:26;94369.59;;;17.52;100.00
6433;BME280;3249;42.690;23.260;2023-06-19T00:42:56;94349.28;;;17.49;100.00
6433;BME280;3249;42.690;23.260;2023-06-19T00:45:26;94366.47;;;17.45;100.00
6433;BME280;3249;42.690;23.260;2023-06-19T00:47:59;94357.63;;;17.51;100.00
6433;BME280;3249;42.690;23.260;2023-06-19T00:50:30;94355.50;;;17.38;100.00
6433;BME280;3249;42.690;23.260;2023-06-19T00:52:59;94353.34;;;17.20;100.00
6433;BME280;3249;42.690;23.260;2023-06-19T00:55:30;94354.94;;;17.31;100.00
6433;BME280;3249;42.690;23.260;2023-06-19T00:58:01;94342.63;;;17.12;100.00
6433;BME280;3249;42.690;23.260;2023-06-19T01:00:30;94337.94;;;17.09;100.00
6433;BME280;3249;42.690;23.260;2023-06-19T01:03:02;94328.81;;;17.06;100.00
6433;BME280;3249;42.690;23.260;2023-06-19T01:05:31;94330.41;;;17.17;100.00
6433;BME280;3249;42.690;23.260;2023-06-19T01:08:04;94337.22;;;17.23;100.00
6433;BME280;3249;42.690;23.260;2023-06-19T01:10:38;94334.63;;;17.28;100.00
6433;BME280;3249;42.690;23.260;2023-06-19T01:13:14;94326.78;;;17.18;100.00
6433;BME280;3249;42.690;23.260;2023-06-19T01:15:46;94327.81;;;17.12;100.00
6433;BME280;3249;42.690;23.260;2023-06-19T01:18:19;94330.91;;;17.09;100.00
6433;BME280;3249;42.690;23.260;2023-06-19T01:20:49;94326.81;;;17.23;100.00
6433;BME280;3249;42.690;23.260;2023-06-19T01:23:21;94325.78;;;17.29;100.00
6433;BME280;3249;42.690;23.260;2023-06-19T01:25:50;94328.31;;;17.14;100.00
6433;BME280;3249;42.690;23.260;2023-06-19T01:28:19;94329.63;;;17.12;100.00
6433;BME280;3249;42.690;23.260;2023-06-19T01:30:48;94322.03;;;17.00;100.00
6433;BME280;3249;42.690;23.260;2023-06-19T01:33:20;94326.09;;;16.76;100.00
6433;BME280;3249;42.690;23.260;2023-06-19T01:35:52;94322.59;;;16.56;100.00
6433;BME280;3249;42.690;23.260;2023-06-19T01:38:25;94329.94;;;16.32;100.00
6433;BME280;3249;42.690;23.260;2023-06-19T01:40:56;94337.50;;;16.34;100.00
6433;BME280;3249;42.690;23.260;2023-06-19T01:43:27;94337.50;;;16.34;100.00
6433;BME280;3249;42.690;23.260;2023-06-19T01:45:58;94332.16;;;16.14;100.00
6433;BME280;3249;42.690;23.260;2023-06-19T01:48:28;94338.63;;;16.11;100.00
6433;BME280;3249;42.690;23.260;2023-06-19T01:50:57;94339.63;;;16.10;100.00
6433;BME280;3249;42.690;23.260;2023-06-19T01:53:30;94345.59;;;16.06;100.00
6433;BME280;3249;42.690;23.260;2023-06-19T01:55:59;94343.41;;;16.24;100.00
6433;BME280;3249;42.690;23.260;2023-06-19T01:58:29;94337.81;;;16.42;100.00
6433;BME280;3249;42.690;23.260;2023-06-19T02:00:59;94341.56;;;16.56;100.00
6433;BME280;3249;42.690;23.260;2023-06-19T02:03:29;94352.00;;;16.61;100.00
6433;BME280;3249;42.690;23.260;2023-06-19T02:05:58;94348.34;;;16.62;100.00
6433;BME280;3249;42.690;23.260;2023-06-19T02:08:29;94355.13;;;16.63;100.00
6433;BME280;3249;42.690;23.260;2023-06-19T02:10:58;94355.63;;;16.60;100.00
6433;BME280;3249;42.690;23.260;2023-06-19T02:13:28;94356.94;;;16.63;100.00
6433;BME280;3249;42.690;23.260;2023-06-19T02:15:56;94355.38;;;16.62;100.00
6433;BME280;3249;42.690;23.260;2023-06-19T02:18:27;94352.78;;;16.62;100.00
6433;BME280;3249;42.690;23.260;2023-06-19T02:20:56;94357.41;;;16.55;100.00
6433;BME280;3249;42.690;23.260;2023-06-19T02:23:25;94360.44;;;16.42;100.00
6433;BME280;3249;42.690;23.260;2023-06-19T02:25:57;94360.78;;;16.24;100.00
6433;BME280;3249;42.690;23.260;2023-06-19T02:28:26;94358.88;;;16.14;100.00
6433;BME280;3249;42.690;23.260;2023-06-19T02:30:56;94357.81;;;16.10;100.00
6433;BME280;3249;42.690;23.260;2023-06-19T02:33:25;94355.56;;;16.19;100.00
6433;BME280;3249;42.690;23.260;2023-06-19T02:35:54;94361.81;;;16.23;100.00
6433;BME280;3249;42.690;23.260;2023-06-19T02:38:24;94369.34;;;16.19;100.00
6433;BME280;3249;42.690;23.260;2023-06-19T02:40:58;94333.69;;;16.10;100.00
6433;BME280;3249;42.690;23.260;2023-06-19T02:43:27;94367.50;;;15.88;100.00
6433;BME280;3249;42.690;23.260;2023-06-19T02:45:57;94358.66;;;15.58;100.00
6433;BME280;3249;42.690;23.260;2023-06-19T02:48:27;94366.25;;;15.43;100.00
6433;BME280;3249;42.690;23.260;2023-06-19T02:50:56;94366.34;;;15.53;100.00
6433;BME280;3249;42.690;23.260;2023-06-19T02:53:25;94365.41;;;15.59;100.00
6433;BME280;3249;42.690;23.260;2023-06-19T02:55:57;94368.09;;;15.69;100.00
6433;BME280;3249;42.690;23.260;2023-06-19T02:58:26;94371.56;;;15.79;100.00
6433;BME280;3249;42.690;23.260;2023-06-19T03:00:56;94369.41;;;15.71;100.00
6433;BME280;3249;42.690;23.260;2023-06-19T03:03:25;94376.56;;;15.86;100.00
6433;BME280;3249;42.690;23.260;2023-06-19T03:05:53;94385.47;;;15.95;100.00
6433;BME280;3249;42.690;23.260;2023-06-19T03:08:22;94377.47;;;16.01;100.00
6433;BME280;3249;42.690;23.260;2023-06-19T03:10:51;94370.94;;;15.94;100.00
6433;BME280;3249;42.690;23.260;2023-06-19T03:13:23;94380.19;;;16.11;100.00
6433;BME280;3249;42.690;23.260;2023-06-19T03:15:53;94375.34;;;16.25;100.00
6433;BME280;3249;42.690;23.260;2023-06-19T03:18:22;94380.53;;;16.25;100.00
6433;BME280;3249;42.690;23.260;2023-06-19T03:20:51;94374.97;;;15.85;100.00
6433;BME280;3249;42.690;23.260;2023-06-19T03:23:20;94368.22;;;16.10;100.00
6433;BME280;3249;42.690;23.260;2023-06-19T03:25:49;94374.56;;;16.24;100.00
6433;BME280;3249;42.690;23.260;2023-06-19T03:28:18;94376.41;;;16.55;100.00
6433;BME280;3249;42.690;23.260;2023-06-19T03:30:50;94379.97;;;16.91;100.00
6433;BME280;3249;42.690;23.260;2023-06-19T03:33:22;94384.00;;;17.13;100.00
6433;BME280;3249;42.690;23.260;2023-06-19T03:35:52;94376.25;;;17.23;100.00
6433;BME280;3249;42.690;23.260;2023-06-19T03:38:47;94387.63;;;17.69;100.00
6433;BME280;3249;42.690;23.260;2023-06-19T03:41:20;94385.31;;;17.97;100.00
6433;BME280;3249;42.690;23.260;2023-06-19T03:43:50;94381.13;;;17.71;100.00
6433;BME280;3249;42.690;23.260;2023-06-19T03:46:21;94383.66;;;17.51;100.00
6433;BME280;3249;42.690;23.260;2023-06-19T03:48:51;94393.13;;;17.82;100.00
6433;BME280;3249;42.690;23.260;2023-06-19T03:51:20;94400.50;;;18.36;100.00
6433;BME280;3249;42.690;23.260;2023-06-19T03:53:49;94363.47;;;18.54;100.00
6433;BME280;3249;42.690;23.260;2023-06-19T03:56:19;94337.44;;;18.19;100.00
6433;BME280;3249;42.690;23.260;2023-06-19T03:58:48;94403.13;;;18.71;100.00
6433;BME280;3249;42.690;23.260;2023-06-19T04:01:17;94394.72;;;19.04;100.00
6433;BME280;3249;42.690;23.260;2023-06-19T04:03:50;94408.66;;;19.53;100.00
6433;BME280;3249;42.690;23.260;2023-06-19T04:06:20;94402.78;;;19.86;99.49
6433;BME280;3249;42.690;23.260;2023-06-19T04:08:49;94378.75;;;19.84;96.77
6433;BME280;3249;42.690;23.260;2023-06-19T04:11:18;94397.50;;;19.91;95.62
6433;BME280;3249;42.690;23.260;2023-06-19T04:13:47;94405.84;;;19.98;97.24
6433;BME280;3249;42.690;23.260;2023-06-19T04:16:16;94396.28;;;19.78;96.03
6433;BME280;3249;42.690;23.260;2023-06-19T04:18:45;94400.44;;;19.84;96.61
6433;BME280;3249;42.690;23.260;2023-06-19T04:21:17;94397.66;;;19.66;98.68
6433;BME280;3249;42.690;23.260;2023-06-19T04:23:46;94396.38;;;19.58;100.00
6433;BME280;3249;42.690;23.260;2023-06-19T04:26:15;94392.19;;;19.57;100.00
6433;BME280;3249;42.690;23.260;2023-06-19T04:28:44;94395.34;;;19.59;100.00
6433;BME280;3249;42.690;23.260;2023-06-19T04:31:12;94391.44;;;19.52;100.00
6433;BME280;3249;42.690;23.260;2023-06-19T04:33:44;94385.16;;;19.58;100.00
6433;BME280;3249;42.690;23.260;2023-06-19T04:36:17;94393.50;;;19.60;100.00
6433;BME280;3249;42.690;23.260;2023-06-19T04:38:45;94386.47;;;19.55;100.00
6433;BME280;3249;42.690;23.260;2023-06-19T04:41:17;94370.63;;;19.32;99.68
6433;BME280;3249;42.690;23.260;2023-06-19T04:43:46;94394.09;;;19.37;100.00
6433;BME280;3249;42.690;23.260;2023-06-19T04:46:14;94384.50;;;19.27;100.00
6433;BME280;3249;42.690;23.260;2023-06-19T04:48:46;94392.03;;;19.29;100.00
6433;BME280;3249;42.690;23.260;2023-06-19T04:51:19;94387.09;;;19.17;100.00
6433;BME280;3249;42.690;23.260;2023-06-19T04:53:48;94386.31;;;19.17;100.00
6433;BME280;3249;42.690;23.260;2023-06-19T04:56:17;94381.63;;;19.24;100.00
6433;BME280;3249;42.690;23.260;2023-06-19T04:58:46;94376.66;;;19.17;100.00
6433;BME280;3249;42.690;23.260;2023-06-19T05:01:17;94372.72;;;19.20;100.00
6433;BME280;3249;42.690;23.260;2023-06-19T05:03:54;94379.72;;;19.44;100.00
6433;BME280;3249;42.690;23.260;2023-06-19T05:06:28;94384.38;;;19.57;100.00
6433;BME280;3249;42.690;23.260;2023-06-19T05:08:57;94380.56;;;19.35;100.00
6433;BME280;3249;42.690;23.260;2023-06-19T05:11:26;94379.84;;;18.94;100.00
6433;BME280;3249;42.690;23.260;2023-06-19T05:13:55;94381.41;;;18.95;100.00
6433;BME280;3249;42.690;23.260;2023-06-19T05:16:24;94383.22;;;19.10;100.00
6433;BME280;3249;42.690;23.260;2023-06-19T05:18:53;94380.66;;;18.95;100.00
6433;BME280;3249;42.690;23.260;2023-06-19T05:21:22;94384.88;;;18.66;100.00
6433;BME280;3249;42.690;23.260;2023-06-19T05:23:54;94371.28;;;18.34;100.00
6433;BME280;3249;42.690;23.260;2023-06-19T05:26:23;94384.59;;;18.32;100.00
6433;BME280;3249;42.690;23.260;2023-06-19T05:28:52;94394.00;;;18.53;100.00
6433;BME280;3249;42.690;23.260;2023-06-19T05:31:21;94397.38;;;18.59;100.00
6433;BME280;3249;42.690;23.260;2023-06-19T05:33:50;94402.84;;;18.67;100.00
6433;BME280;3249;42.690;23.260;2023-06-19T05:36:19;94410.91;;;18.96;100.00
6433;BME280;3249;42.690;23.260;2023-06-19T05:38:48;94406.50;;;18.66;100.00
6433;BME280;3249;42.690;23.260;2023-06-19T05:41:21;94404.69;;;18.67;100.00
6433;BME280;3249;42.690;23.260;2023-06-19T05:43:50;94397.38;;;18.44;100.00
6433;BME280;3249;42.690;23.260;2023-06-19T05:46:19;94408.34;;;18.56;100.00
6433;BME280;3249;42.690;23.260;2023-06-19T05:48:48;94404.69;;;18.52;100.00
6433;BME280;3249;42.690;23.260;2023-06-19T05:51:16;94418.25;;;18.79;100.00
6433;BME280;3249;42.690;23.260;2023-06-19T05:53:45;94416.59;;;19.28;100.00
6433;BME280;3249;42.690;23.260;2023-06-19T05:56:15;94414.50;;;19.30;100.00
6433;BME280;3249;42.690;23.260;2023-06-19T05:58:47;94413.25;;;18.92;100.00
6433;BME280;3249;42.690;23.260;2023-06-19T06:01:16;94412.97;;;19.04;100.00
6433;BME280;3249;42.690;23.260;2023-06-19T06:03:45;94419.47;;;19.31;100.00
6433;BME280;3249;42.690;23.260;2023-06-19T06:06:13;94421.25;;;19.41;100.00
6433;BME280;3249;42.690;23.260;2023-06-19T06:08:43;94416.19;;;19.69;100.00
6433;BME280;3249;42.690;23.260;2023-06-19T06:11:12;94429.66;;;19.86;100.00
6433;BME280;3249;42.690;23.260;2023-06-19T06:13:47;94417.56;;;19.52;100.00
6433;BME280;3249;42.690;23.260;2023-06-19T06:16:16;94422.19;;;19.65;100.00
6433;BME280;3249;42.690;23.260;2023-06-19T06:18:49;94423.97;;;19.79;100.00
6433;BME280;3249;42.690;23.260;2023-06-19T06:21:18;94427.31;;;19.31;100.00
6433;BME280;3249;42.690;23.260;2023-06-19T06:23:47;94439.59;;;19.26;100.00
6433;BME280;3249;42.690;23.260;2023-06-19T06:26:15;94426.00;;;19.14;100.00
6433;BME280;3249;42.690;23.260;2023-06-19T06:28:50;94432.78;;;19.25;100.00
6433;BME280;3249;42.690;23.260;2023-06-19T06:31:21;94434.84;;;19.38;100.00
6433;BME280;3249;42.690;23.260;2023-06-19T06:33:51;94418.50;;;19.76;100.00
6433;BME280;3249;42.690;23.260;2023-06-19T06:36:20;94442.13;;;20.04;97.86
6433;BME280;3249;42.690;23.260;2023-06-19T06:38:50;94445.44;;;19.66;100.00
6433;BME280;3249;42.690;23.260;2023-06-19T06:41:19;94433.56;;;19.30;100.00
6433;BME280;3249;42.690;23.260;2023-06-19T06:43:51;94452.22;;;19.72;97.68
6433;BME280;3249;42.690;23.260;2023-06-19T06:46:21;94447.41;;;19.94;93.74
6433;BME280;3249;42.690;23.260;2023-06-19T06:48:50;94447.13;;;20.01;94.20
6433;BME280;3249;42.690;23.260;2023-06-19T06:51:19;94443.06;;;19.75;94.40
6433;BME280;3249;42.690;23.260;2023-06-19T06:53:48;94440.47;;;19.70;96.98
6433;BME280;3249;42.690;23.260;2023-06-19T06:56:17;94437.63;;;19.61;98.87
6433;BME280;3249;42.690;23.260;2023-06-19T06:58:47;94437.84;;;19.75;100.00
6433;BME280;3249;42.690;23.260;2023-06-19T07:01:18;94450.00;;;19.94;96.26
6433;BME280;3249;42.690;23.260;2023-06-19T07:03:47;94453.88;;;20.17;97.21
6433;BME280;3249;42.690;23.260;2023-06-19T07:06:16;94446.06;;;20.50;90.07
6433;BME280;3249;42.690;23.260;2023-06-19T07:08:45;94446.19;;;20.64;87.73
6433;BME280;3249;42.690;23.260;2023-06-19T07:11:15;94450.34;;;21.03;87.74
6433;BME280;3249;42.690;23.260;2023-06-19T07:13:44;94446.59;;;20.47;90.39
6433;BME280;3249;42.690;23.260;2023-06-19T07:16:13;94459.41;;;20.49;86.23
6433;BME280;3249;42.690;23.260;2023-06-19T07:18:45;94447.41;;;20.76;89.07
6433;BME280;3249;42.690;23.260;2023-06-19T07:21:15;94442.13;;;20.53;90.37
6433;BME280;3249;42.690;23.260;2023-06-19T07:23:45;94426.44;;;20.53;89.08
6433;BME280;3249;42.690;23.260;2023-06-19T07:26:15;94456.22;;;20.52;89.93
6433;BME280;3249;42.690;23.260;2023-06-19T07:28:44;94455.66;;;20.21;92.63
6433;BME280;3249;42.690;23.260;2023-06-19T07:31:13;94458.41;;;20.40;88.33
6433;BME280;3249;42.690;23.260;2023-06-19T07:33:45;94456.31;;;20.42;92.82
6433;BME280;3249;42.690;23.260;2023-06-19T07:36:14;94455.47;;;20.51;85.79
6433;BME280;3249;42.690;23.260;2023-06-19T07:38:43;94459.09;;;20.89;84.53
6433;BME280;3249;42.690;23.260;2023-06-19T07:41:13;94468.84;;;21.12;82.11
6433;BME280;3249;42.690;23.260;2023-06-19T07:43:42;94457.47;;;20.98;82.48
6433;BME280;3249;42.690;23.260;2023-06-19T07:46:11;94438.50;;;21.11;86.50
6433;BME280;3249;42.690;23.260;2023-06-19T07:48:41;94464.53;;;21.26;82.46
6433;BME280;3249;42.690;23.260;2023-06-19T07:51:12;94445.50;;;21.44;78.36
6433;BME280;3249;42.690;23.260;2023-06-19T07:53:41;94463.22;;;21.52;78.49
6433;BME280;3249;42.690;23.260;2023-06-19T07:56:10;94462.91;;;21.58;78.77
6433;BME280;3249;42.690;23.260;2023-06-19T07:58:39;94463.09;;;21.62;75.10
6433;BME280;3249;42.690;23.260;2023-06-19T08:01:08;94466.34;;;21.77;75.29
6433;BME280;3249;42.690;23.260;2023-06-19T08:03:37;94462.72;;;21.50;74.73
6433;BME280;3249;42.690;23.260;2023-06-19T08:06:08;94466.69;;;21.71;75.94
6433;BME280;3249;42.690;23.260;2023-06-19T08:08:39;94469.47;;;21.79;68.69
6433;BME280;3249;42.690;23.260;2023-06-19T08:11:08;94468.59;;;21.89;69.92
6433;BME280;3249;42.690;23.260;2023-06-19T08:13:38;94478.56;;;21.87;55.25
6433;BME280;3249;42.690;23.260;2023-06-19T08:16:06;94466.63;;;21.99;59.20
6433;BME280;3249;42.690;23.260;2023-06-19T08:18:36;94474.69;;;22.03;55.86
6433;BME280;3249;42.690;23.260;2023-06-19T08:21:05;94474.78;;;22.17;59.46
6433;BME280;3249;42.690;23.260;2023-06-19T08:23:34;94465.38;;;22.34;62.81
6433;BME280;3249;42.690;23.260;2023-06-19T08:26:06;94472.03;;;22.45;63.51
6433;BME280;3249;42.690;23.260;2023-06-19T08:28:36;94461.19;;;22.33;57.90
6433;BME280;3249;42.690;23.260;2023-06-19T08:31:07;94478.06;;;22.46;57.97
6433;BME280;3249;42.690;23.260;2023-06-19T08:33:36;94478.31;;;22.49;55.41
6433;BME280;3249;42.690;23.260;2023-06-19T08:36:05;94476.94;;;22.52;51.93
6433;BME280;3249;42.690;23.260;2023-06-19T08:38:34;94474.59;;;22.50;51.00
6433;BME280;3249;42.690;23.260;2023-06-19T08:41:06;94480.84;;;22.54;53.02
6433;BME280;3249;42.690;23.260;2023-06-19T08:43:37;94475.88;;;22.53;54.51
6433;BME280;3249;42.690;23.260;2023-06-19T08:46:10;94471.88;;;22.18;56.74
6433;BME280;3249;42.690;23.260;2023-06-19T08:48:39;94476.56;;;22.40;49.05
6433;BME280;3249;42.690;23.260;2023-06-19T08:51:09;94476.09;;;22.56;49.71
6433;BME280;3249;42.690;23.260;2023-06-19T08:53:44;94469.66;;;22.67;50.54
6433;BME280;3249;42.690;23.260;2023-06-19T08:56:19;94465.19;;;22.49;52.33
6433;BME280;3249;42.690;23.260;2023-06-19T08:58:48;94468.91;;;22.80;52.79
6433;BME280;3249;42.690;23.260;2023-06-19T09:01:18;94480.34;;;22.71;48.33
6433;BME280;3249;42.690;23.260;2023-06-19T09:03:47;94477.84;;;22.61;50.92
6433;BME280;3249;42.690;23.260;2023-06-19T09:06:18;94478.25;;;22.86;49.21
6433;BME280;3249;42.690;23.260;2023-06-19T09:08:57;94469.59;;;22.12;54.49
6433;BME280;3249;42.690;23.260;2023-06-19T09:11:32;94465.22;;;22.44;58.18
6433;BME280;3249;42.690;23.260;2023-06-19T09:14:00;94477.00;;;22.65;47.63
6433;BME280;3249;42.690;23.260;2023-06-19T09:16:37;94484.16;;;22.78;45.63
6433;BME280;3249;42.690;23.260;2023-06-19T09:19:06;94479.84;;;22.87;46.20
6433;BME280;3249;42.690;23.260;2023-06-19T09:21:36;94482.56;;;22.96;46.05
6433;BME280;3249;42.690;23.260;2023-06-19T09:24:07;94473.59;;;23.15;47.49
6433;BME280;3249;42.690;23.260;2023-06-19T09:26:39;94486.56;;;23.25;49.42
6433;BME280;3249;42.690;23.260;2023-06-19T09:29:10;94478.88;;;22.97;48.90
6433;BME280;3249;42.690;23.260;2023-06-19T09:31:41;94455.03;;;22.93;47.17
6433;BME280;3249;42.690;23.260;2023-06-19T09:34:11;94464.75;;;22.61;53.03
6433;BME280;3249;42.690;23.260;2023-06-19T09:36:40;94464.16;;;22.64;54.64
6433;BME280;3249;42.690;23.260;2023-06-19T09:39:10;94475.19;;;22.66;54.86
6433;BME280;3249;42.690;23.260;2023-06-19T09:41:43;94469.34;;;22.87;51.12
6433;BME280;3249;42.690;23.260;2023-06-19T09:46:49;94484.75;;;23.07;47.11
6433;BME280;3249;42.690;23.260;2023-06-19T09:49:20;94479.84;;;23.19;47.39
6433;BME280;3249;42.690;23.260;2023-06-19T09:52:06;94463.81;;;23.02;49.29
6433;BME280;3249;42.690;23.260;2023-06-19T09:54:36;94464.88;;;23.01;49.61
6433;BME280;3249;42.690;23.260;2023-06-19T09:57:10;94474.34;;;23.16;48.42
6433;BME280;3249;42.690;23.260;2023-06-19T09:59:40;94469.66;;;22.99;42.69
6433;BME280;3249;42.690;23.260;2023-06-19T10:02:10;94469.16;;;22.97;45.79
6433;BME280;3249;42.690;23.260;2023-06-19T10:04:44;94461.66;;;23.23;44.65
6433;BME280;3249;42.690;23.260;2023-06-19T10:07:22;94471.25;;;23.46;44.84
6433;BME280;3249;42.690;23.260;2023-06-19T10:09:56;94469.66;;;23.58;42.47
6433;BME280;3249;42.690;23.260;2023-06-19T10:12:42;94469.22;;;23.70;44.21
6433;BME280;3249;42.690;23.260;2023-06-19T10:15:16;94466.47;;;23.61;44.61
6433;BME280;3249;42.690;23.260;2023-06-19T10:17:47;94464.63;;;23.62;42.25
6433;BME280;3249;42.690;23.260;2023-06-19T10:20:24;94457.03;;;23.74;43.48
6433;BME280;3249;42.690;23.260;2023-06-19T10:22:59;94459.56;;;23.79;42.66
6433;BME280;3249;42.690;23.260;2023-06-19T10:25:29;94420.81;;;22.98;46.93
6433;BME280;3249;42.690;23.260;2023-06-19T10:28:03;94441.75;;;23.03;48.24
6433;BME280;3249;42.690;23.260;2023-06-19T10:30:36;94450.00;;;23.42;46.05
6433;BME280;3249;42.690;23.260;2023-06-19T10:33:11;94444.84;;;23.64;45.16
6433;BME280;3249;42.690;23.260;2023-06-19T10:35:40;94454.00;;;23.80;44.99
6433;BME280;3249;42.690;23.260;2023-06-19T10:38:09;94441.66;;;23.54;47.44
6433;BME280;3249;42.690;23.260;2023-06-19T10:40:39;94451.97;;;23.37;44.05
6433;BME280;3249;42.690;23.260;2023-06-19T10:43:11;94446.91;;;23.67;41.44
6433;BME280;3249;42.690;23.260;2023-06-19T10:45:40;94448.84;;;23.89;41.17
6433;BME280;3249;42.690;23.260;2023-06-19T10:48:09;94454.09;;;23.89;42.60
6433;BME280;3249;42.690;23.260;2023-06-19T10:50:42;94445.03;;;24.08;44.31
6433;BME280;3249;42.690;23.260;2023-06-19T10:53:11;94449.44;;;24.13;45.42
6433;BME280;3249;42.690;23.260;2023-06-19T10:55:40;94437.50;;;24.29;47.38
6433;BME280;3249;42.690;23.260;2023-06-19T10:58:12;94446.19;;;24.51;43.77
6433;BME280;3249;42.690;23.260;2023-06-19T11:00:41;94441.72;;;24.52;44.25
6433;BME280;3249;42.690;23.260;2023-06-19T11:03:09;94438.59;;;24.63;42.60
6433;BME280;3249;42.690;23.260;2023-06-19T11:05:43;94439.25;;;24.20;43.81
6433;BME280;3249;42.690;23.260;2023-06-19T11:08:17;94434.03;;;24.42;46.37
6433;BME280;3249;42.690;23.260;2023-06-19T11:10:48;94430.09;;;24.66;52.08
6433;BME280;3249;42.690;23.260;2023-06-19T11:13:20;94434.50;;;24.79;49.49
6433;BME280;3249;42.690;23.260;2023-06-19T11:15:50;94428.41;;;24.70;44.07
6433;BME280;3249;42.690;23.260;2023-06-19T11:18:19;94418.41;;;24.45;45.54
6433;BME280;3249;42.690;23.260;2023-06-19T11:20:49;94427.09;;;24.46;45.21
6433;BME280;3249;42.690;23.260;2023-06-19T11:23:25;94430.78;;;24.58;49.79
6433;BME280;3249;42.690;23.260;2023-06-19T11:26:02;94426.97;;;24.64;46.52
6433;BME280;3249;42.690;23.260;2023-06-19T11:28:34;94415.53;;;24.69;47.56
6433;BME280;3249;42.690;23.260;2023-06-19T11:31:03;94419.00;;;24.56;43.18
6433;BME280;3249;42.690;23.260;2023-06-19T11:33:33;94427.47;;;24.66;45.90
6433;BME280;3249;42.690;23.260;2023-06-19T11:36:03;94427.06;;;24.81;46.43
6433;BME280;3249;42.690;23.260;2023-06-19T11:38:35;94422.53;;;24.73;48.25
6433;BME280;3249;42.690;23.260;2023-06-19T11:41:07;94418.78;;;24.88;44.60
6433;BME280;3249;42.690;23.260;2023-06-19T11:43:39;94422.44;;;25.09;44.12
6433;BME280;3249;42.690;23.260;2023-06-19T11:46:09;94414.72;;;25.12;43.82
6433;BME280;3249;42.690;23.260;2023-06-19T11:48:39;94420.69;;;24.96;45.27
6433;BME280;3249;42.690;23.260;2023-06-19T11:51:09;94423.03;;;25.06;45.34
6433;BME280;3249;42.690;23.260;2023-06-19T11:53:38;94412.44;;;25.19;44.45
6433;BME280;3249;42.690;23.260;2023-06-19T11:56:08;94406.06;;;24.90;52.87
6433;BME280;3249;42.690;23.260;2023-06-19T11:58:40;94418.06;;;25.04;45.86
6433;BME280;3249;42.690;23.260;2023-06-19T12:01:11;94418.78;;;25.18;47.43
6433;BME280;3249;42.690;23.260;2023-06-19T12:03:40;94413.28;;;25.06;48.63
6433;BME280;3249;42.690;23.260;2023-06-19T12:06:09;94402.19;;;24.65;56.82
6433;BME280;3249;42.690;23.260;2023-06-19T12:08:38;94422.38;;;25.00;45.76
6433;BME280;3249;42.690;23.260;2023-06-19T12:11:07;94413.91;;;25.34;48.29
6433;BME280;3249;42.690;23.260;2023-06-19T12:13:36;94414.31;;;25.49;50.02
6433;BME280;3249;42.690;23.260;2023-06-19T12:16:09;94413.06;;;25.55;45.28
6433;BME280;3249;42.690;23.260;2023-06-19T12:18:38;94406.53;;;25.53;48.51
6433;BME280;3249;42.690;23.260;2023-06-19T12:21:07;94399.19;;;25.02;50.45
6433;BME280;3249;42.690;23.260;2023-06-19T12:23:36;94396.84;;;24.57;50.84
6433;BME280;3249;42.690;23.260;2023-06-19T12:26:05;94391.16;;;24.41;52.51
6433;BME280;3249;42.690;23.260;2023-06-19T12:28:34;94394.00;;;24.53;53.59
6433;BME280;3249;42.690;23.260;2023-06-19T12:31:03;94394.84;;;24.76;48.56
6433;BME280;3249;42.690;23.260;2023-06-19T12:33:35;94398.13;;;25.12;46.43
6433;BME280;3249;42.690;23.260;2023-06-19T12:36:10;94403.91;;;25.53;47.70
6433;BME280;3249;42.690;23.260;2023-06-19T12:38:41;94406.84;;;25.51;42.88
6433;BME280;3249;42.690;23.260;2023-06-19T12:41:11;94405.69;;;25.74;43.83
6433;BME280;3249;42.690;23.260;2023-06-19T12:43:41;94407.72;;;25.86;45.71
6433;BME280;3249;42.690;23.260;2023-06-19T12:46:10;94393.81;;;25.16;46.77
6433;BME280;3249;42.690;23.260;2023-06-19T12:48:42;94407.59;;;25.43;46.85
6433;BME280;3249;42.690;23.260;2023-06-19T12:51:16;94406.31;;;25.88;43.01
6433;BME280;3249;42.690;23.260;2023-06-19T12:53:46;94404.06;;;25.56;42.10
6433;BME280;3249;42.690;23.260;2023-06-19T12:56:15;94402.97;;;25.18;41.73
6433;BME280;3249;42.690;23.260;2023-06-19T12:58:44;94407.53;;;25.65;39.66
6433;BME280;3249;42.690;23.260;2023-06-19T13:01:13;94407.41;;;25.87;38.85
6433;BME280;3249;42.690;23.260;2023-06-19T13:03:45;94387.69;;;25.76;38.36
6433;BME280;3249;42.690;23.260;2023-06-19T13:06:14;94389.72;;;25.01;43.13
6433;BME280;3249;42.690;23.260;2023-06-19T13:08:45;94399.53;;;25.48;39.07
6433;BME280;3249;42.690;23.260;2023-06-19T13:11:14;94400.47;;;25.52;42.10
6433;BME280;3249;42.690;23.260;2023-06-19T13:13:43;94397.72;;;25.57;40.84
6433;BME280;3249;42.690;23.260;2023-06-19T13:16:12;94399.56;;;25.18;42.04
6433;BME280;3249;42.690;23.260;2023-06-19T13:18:41;94394.75;;;24.89;40.42
6433;BME280;3249;42.690;23.260;2023-06-19T13:21:13;94386.72;;;25.25;39.93
6433;BME280;3249;42.690;23.260;2023-06-19T13:23:44;94380.59;;;25.38;38.37